sensor_id;sensor_type;location;lat;lon;timestamp;temperature;humidity
65826;DHT22;52586;-43.152;172.732;2023-05-10T00:01:08;18.80;58.70
65826;DHT22;52586;-43.152;172.732;2023-05-10T00:03:39;18.80;58.70
65826;DHT22;52586;-43.152;172.732;2023-05-10T00:06:10;18.80;58.70
65826;DHT22;52586;-43.152;172.732;2023-05-10T00:08:40;18.80;58.70
65826;DHT22;52586;-43.152;172.732;2023-05-10T00:11:11;18.80;58.70
65826;DHT22;52586;-43.152;172.732;2023-05-10T00:13:42;18.80;58.80
65826;DHT22;52586;-43.152;172.732;2023-05-10T00:16:14;18.80;58.70
65826;DHT22;52586;-43.152;172.732;2023-05-10T00:18:45;18.80;58.80
65826;DHT22;52586;-43.152;172.732;2023-05-10T00:21:15;18.80;58.80
65826;DHT22;52586;-43.152;172.732;2023-05-10T00:23:46;18.80;58.70
65826;DHT22;52586;-43.152;172.732;2023-05-10T00:26:17;18.80;58.80
65826;DHT22;52586;-43.152;172.732;2023-05-10T00:28:47;18.80;58.70
65826;DHT22;52586;-43.152;172.732;2023-05-10T00:31:20;18.80;58.80
65826;DHT22;52586;-43.152;172.732;2023-05-10T00:33:50;18.80;58.80
65826;DHT22;52586;-43.152;172.732;2023-05-10T00:36:21;18.80;58.90
65826;DHT22;52586;-43.152;172.732;2023-05-10T00:38:52;18.90;58.90
65826;DHT22;52586;-43.152;172.732;2023-05-10T00:41:22;18.90;58.80
65826;DHT22;52586;-43.152;172.732;2023-05-10T00:43:53;18.90;58.90
65826;DHT22;52586;-43.152;172.732;2023-05-10T00:46:26;18.90;58.80
65826;DHT22;52586;-43.152;172.732;2023-05-10T00:48:56;18.90;58.80
65826;DHT22;52586;-43.152;172.732;2023-05-10T00:51:27;18.90;58.80
65826;DHT22;52586;-43.152;172.732;2023-05-10T00:53:59;18.90;58.90
65826;DHT22;52586;-43.152;172.732;2023-05-10T00:56:30;18.90;59.00
65826;DHT22;52586;-43.152;172.732;2023-05-10T00:59:01;18.90;59.00
65826;DHT22;52586;-43.152;172.732;2023-05-10T01:01:34;18.90;58.90
65826;DHT22;52586;-43.152;172.732;2023-05-10T01:04:05;18.90;59.00
65826;DHT22;52586;-43.152;172.732;2023-05-10T01:06:36;18.90;58.90
65826;DHT22;52586;-43.152;172.732;2023-05-10T01:09:07;18.90;58.90
65826;DHT22;52586;-43.152;172.732;2023-05-10T01:11:38;19.00;59.00
65826;DHT22;52586;-43.152;172.732;2023-05-10T01:14:09;19.00;58.90
65826;DHT22;52586;-43.152;172.732;2023-05-10T01:16:43;19.00;58.90
65826;DHT22;52586;-43.152;172.732;2023-05-10T01:19:18;19.00;58.90
65826;DHT22;52586;-43.152;172.732;2023-05-10T01:21:55;19.00;58.90
65826;DHT22;52586;-43.152;172.732;2023-05-10T01:28:02;19.00;58.90
65826;DHT22;52586;-43.152;172.732;2023-05-10T01:30:58;19.00;58.80
65826;DHT22;52586;-43.152;172.732;2023-05-10T01:33:39;19.00;58.80
65826;DHT22;52586;-43.152;172.732;2023-05-10T01:36:19;19.00;58.70
65826;DHT22;52586;-43.152;172.732;2023-05-10T01:38:57;19.00;58.80
65826;DHT22;52586;-43.152;172.732;2023-05-10T01:41:36;19.00;58.80
65826;DHT22;52586;-43.152;172.732;2023-05-10T01:44:20;19.00;58.90
65826;DHT22;52586;-43.152;172.732;2023-05-10T01:46:56;19.00;58.80
65826;DHT22;52586;-43.152;172.732;2023-05-10T01:49:32;19.10;58.90
65826;DHT22;52586;-43.152;172.732;2023-05-10T01:52:09;19.10;58.80
65826;DHT22;52586;-43.152;172.732;2023-05-10T01:54:44;19.10;58.80
65826;DHT22;52586;-43.152;172.732;2023-05-10T01:57:17;19.10;58.90
65826;DHT22;52586;-43.152;172.732;2023-05-10T01:59:51;19.10;58.80
65826;DHT22;52586;-43.152;172.732;2023-05-10T02:02:23;19.10;58.80
65826;DHT22;52586;-43.152;172.732;2023-05-10T02:04:57;19.20;58.90
65826;DHT22;52586;-43.152;172.732;2023-05-10T02:07:29;19.20;58.90
65826;DHT22;52586;-43.152;172.732;2023-05-10T02:10:02;19.20;58.90
65826;DHT22;52586;-43.152;172.732;2023-05-10T02:12:35;19.20;58.80
65826;DHT22;52586;-43.152;172.732;2023-05-10T02:15:10;19.20;58.90
65826;DHT22;52586;-43.152;172.732;2023-05-10T02:17:43;19.20;58.90
65826;DHT22;52586;-43.152;172.732;2023-05-10T02:20:17;19.20;58.90
65826;DHT22;52586;-43.152;172.732;2023-05-10T02:22:50;19.20;59.00
65826;DHT22;52586;-43.152;172.732;2023-05-10T02:25:23;19.20;58.90
65826;DHT22;52586;-43.152;172.732;2023-05-10T02:27:55;19.20;59.00
65826;DHT22;52586;-43.152;172.732;2023-05-10T02:30:27;19.30;59.10
65826;DHT22;52586;-43.152;172.732;2023-05-10T02:32:58;19.30;59.00
65826;DHT22;52586;-43.152;172.732;2023-05-10T02:35:32;19.40;59.10
65826;DHT22;52586;-43.152;172.732;2023-05-10T02:38:03;19.30;59.00
65826;DHT22;52586;-43.152;172.732;2023-05-10T02:40:34;19.40;59.10
65826;DHT22;52586;-43.152;172.732;2023-05-10T02:43:07;19.40;59.10
65826;DHT22;52586;-43.152;172.732;2023-05-10T02:45:39;19.40;59.00
65826;DHT22;52586;-43.152;172.732;2023-05-10T02:48:10;19.40;59.00
65826;DHT22;52586;-43.152;172.732;2023-05-10T02:50:44;19.50;59.10
65826;DHT22;52586;-43.152;172.732;2023-05-10T02:53:21;19.50;59.10
65826;DHT22;52586;-43.152;172.732;2023-05-10T02:55:53;19.50;59.10
65826;DHT22;52586;-43.152;172.732;2023-05-10T02:58:25;19.50;59.10
65826;DHT22;52586;-43.152;172.732;2023-05-10T03:00:56;19.50;59.10
65826;DHT22;52586;-43.152;172.732;2023-05-10T03:03:27;19.50;59.00
65826;DHT22;52586;-43.152;172.732;2023-05-10T03:05:59;19.50;58.90
65826;DHT22;52586;-43.152;172.732;2023-05-10T03:08:30;19.60;58.90
65826;DHT22;52586;-43.152;172.732;2023-05-10T03:11:12;19.60;58.90
65826;DHT22;52586;-43.152;172.732;2023-05-10T03:13:58;19.60;58.90
65826;DHT22;52586;-43.152;172.732;2023-05-10T03:16:37;19.70;58.90
65826;DHT22;52586;-43.152;172.732;2023-05-10T03:19:14;19.70;58.90
65826;DHT22;52586;-43.152;172.732;2023-05-10T03:21:52;19.70;58.90
65826;DHT22;52586;-43.152;172.732;2023-05-10T03:24:24;19.70;58.90
65826;DHT22;52586;-43.152;172.732;2023-05-10T03:27:00;19.70;58.90
65826;DHT22;52586;-43.152;172.732;2023-05-10T03:29:32;19.70;58.90
65826;DHT22;52586;-43.152;172.732;2023-05-10T03:32:03;19.80;58.80
65826;DHT22;52586;-43.152;172.732;2023-05-10T03:34:34;19.70;58.70
65826;DHT22;52586;-43.152;172.732;2023-05-10T03:37:13;19.80;58.80
65826;DHT22;52586;-43.152;172.732;2023-05-10T03:39:44;19.80;58.80
65826;DHT22;52586;-43.152;172.732;2023-05-10T03:42:14;19.80;58.80
65826;DHT22;52586;-43.152;172.732;2023-05-10T03:44:45;19.80;58.80
65826;DHT22;52586;-43.152;172.732;2023-05-10T03:47:16;19.80;58.80
65826;DHT22;52586;-43.152;172.732;2023-05-10T03:49:47;19.80;58.80
65826;DHT22;52586;-43.152;172.732;2023-05-10T03:52:20;19.90;58.80
65826;DHT22;52586;-43.152;172.732;2023-05-10T03:54:50;19.90;58.70
65826;DHT22;52586;-43.152;172.732;2023-05-10T03:57:21;19.90;58.70
65826;DHT22;52586;-43.152;172.732;2023-05-10T03:59:51;19.90;58.60
65826;DHT22;52586;-43.152;172.732;2023-05-10T04:02:22;20.00;58.60
65826;DHT22;52586;-43.152;172.732;2023-05-10T04:04:53;20.00;58.60
65826;DHT22;52586;-43.152;172.732;2023-05-10T04:07:25;20.00;58.50
65826;DHT22;52586;-43.152;172.732;2023-05-10T04:09:56;20.00;58.40
65826;DHT22;52586;-43.152;172.732;2023-05-10T04:12:26;20.00;58.40
65826;DHT22;52586;-43.152;172.732;2023-05-10T04:14:57;20.00;58.40
65826;DHT22;52586;-43.152;172.732;2023-05-10T04:17:28;20.00;58.30
65826;DHT22;52586;-43.152;172.732;2023-05-10T04:19:58;20.00;58.30
65826;DHT22;52586;-43.152;172.732;2023-05-10T04:22:32;20.00;58.30
65826;DHT22;52586;-43.152;172.732;2023-05-10T04:25:02;20.00;58.20
65826;DHT22;52586;-43.152;172.732;2023-05-10T04:27:34;20.00;58.20
65826;DHT22;52586;-43.152;172.732;2023-05-10T04:30:05;20.00;58.10
65826;DHT22;52586;-43.152;172.732;2023-05-10T04:32:36;20.10;58.10
65826;DHT22;52586;-43.152;172.732;2023-05-10T04:35:07;20.10;58.10
65826;DHT22;52586;-43.152;172.732;2023-05-10T04:37:40;20.10;58.00
65826;DHT22;52586;-43.152;172.732;2023-05-10T04:40:11;20.00;58.00
65826;DHT22;52586;-43.152;172.732;2023-05-10T04:42:42;20.10;58.00
65826;DHT22;52586;-43.152;172.732;2023-05-10T04:45:13;20.10;58.00
65826;DHT22;52586;-43.152;172.732;2023-05-10T04:47:44;20.10;58.00
65826;DHT22;52586;-43.152;172.732;2023-05-10T04:50:15;20.10;57.90
65826;DHT22;52586;-43.152;172.732;2023-05-10T04:52:48;20.10;57.90
65826;DHT22;52586;-43.152;172.732;2023-05-10T04:55:18;20.10;57.80
65826;DHT22;52586;-43.152;172.732;2023-05-10T04:57:49;20.10;57.80
65826;DHT22;52586;-43.152;172.732;2023-05-10T05:00:20;20.10;57.70
65826;DHT22;52586;-43.152;172.732;2023-05-10T05:02:51;20.10;57.70
65826;DHT22;52586;-43.152;172.732;2023-05-10T05:05:21;20.10;57.70
65826;DHT22;52586;-43.152;172.732;2023-05-10T05:07:54;20.10;57.60
65826;DHT22;52586;-43.152;172.732;2023-05-10T05:10:24;20.00;57.60
65826;DHT22;52586;-43.152;172.732;2023-05-10T05:12:55;20.10;57.60
65826;DHT22;52586;-43.152;172.732;2023-05-10T05:15:26;20.10;57.60
65826;DHT22;52586;-43.152;172.732;2023-05-10T05:17:58;20.10;57.60
65826;DHT22;52586;-43.152;172.732;2023-05-10T05:20:31;20.00;57.60
65826;DHT22;52586;-43.152;172.732;2023-05-10T05:23:03;20.00;57.60
65826;DHT22;52586;-43.152;172.732;2023-05-10T05:25:34;20.10;57.60
65826;DHT22;52586;-43.152;172.732;2023-05-10T05:28:05;20.00;57.50
65826;DHT22;52586;-43.152;172.732;2023-05-10T05:30:36;20.00;57.50
65826;DHT22;52586;-43.152;172.732;2023-05-10T05:33:06;20.00;57.50
65826;DHT22;52586;-43.152;172.732;2023-05-10T05:35:37;20.00;57.50
65826;DHT22;52586;-43.152;172.732;2023-05-10T05:38:09;20.00;57.50
65826;DHT22;52586;-43.152;172.732;2023-05-10T05:40:40;19.90;57.40
65826;DHT22;52586;-43.152;172.732;2023-05-10T05:43:11;19.90;57.40
65826;DHT22;52586;-43.152;172.732;2023-05-10T05:45:41;19.90;57.40
65826;DHT22;52586;-43.152;172.732;2023-05-10T05:48:12;19.90;57.40
65826;DHT22;52586;-43.152;172.732;2023-05-10T05:50:43;19.90;57.30
65826;DHT22;52586;-43.152;172.732;2023-05-10T05:53:15;19.90;57.30
65826;DHT22;52586;-43.152;172.732;2023-05-10T05:55:52;19.80;57.20
65826;DHT22;52586;-43.152;172.732;2023-05-10T05:58:24;19.80;57.20
65826;DHT22;52586;-43.152;172.732;2023-05-10T06:00:54;19.80;57.20
65826;DHT22;52586;-43.152;172.732;2023-05-10T06:03:25;19.80;57.10
65826;DHT22;52586;-43.152;172.732;2023-05-10T06:05:55;19.80;57.10
65826;DHT22;52586;-43.152;172.732;2023-05-10T06:08:28;19.80;57.20
65826;DHT22;52586;-43.152;172.732;2023-05-10T06:10:59;19.80;57.20
65826;DHT22;52586;-43.152;172.732;2023-05-10T06:13:29;19.80;57.20
65826;DHT22;52586;-43.152;172.732;2023-05-10T06:16:01;19.80;57.20
65826;DHT22;52586;-43.152;172.732;2023-05-10T06:18:32;19.70;57.10
65826;DHT22;52586;-43.152;172.732;2023-05-10T06:21:03;19.70;57.10
65826;DHT22;52586;-43.152;172.732;2023-05-10T06:23:35;19.70;57.10
65826;DHT22;52586;-43.152;172.732;2023-05-10T06:26:06;19.70;57.10
65826;DHT22;52586;-43.152;172.732;2023-05-10T06:28:36;19.70;57.10
65826;DHT22;52586;-43.152;172.732;2023-05-10T06:31:07;19.60;57.00
65826;DHT22;52586;-43.152;172.732;2023-05-10T06:33:39;19.60;57.00
65826;DHT22;52586;-43.152;172.732;2023-05-10T06:36:10;19.60;57.00
65826;DHT22;52586;-43.152;172.732;2023-05-10T06:38:42;19.60;57.00
65826;DHT22;52586;-43.152;172.732;2023-05-10T06:41:13;19.60;57.00
65826;DHT22;52586;-43.152;172.732;2023-05-10T06:43:44;19.60;56.90
65826;DHT22;52586;-43.152;172.732;2023-05-10T06:46:14;19.50;56.90
65826;DHT22;52586;-43.152;172.732;2023-05-10T06:48:45;19.50;56.90
65826;DHT22;52586;-43.152;172.732;2023-05-10T06:51:16;19.50;56.90
65826;DHT22;52586;-43.152;172.732;2023-05-10T06:53:48;19.50;56.90
65826;DHT22;52586;-43.152;172.732;2023-05-10T06:56:19;19.40;56.80
65826;DHT22;52586;-43.152;172.732;2023-05-10T06:58:50;19.40;56.70
65826;DHT22;52586;-43.152;172.732;2023-05-10T07:01:21;19.40;56.70
65826;DHT22;52586;-43.152;172.732;2023-05-10T07:03:51;19.40;56.70
65826;DHT22;52586;-43.152;172.732;2023-05-10T07:06:22;19.40;56.70
65826;DHT22;52586;-43.152;172.732;2023-05-10T07:08:54;19.40;56.70
65826;DHT22;52586;-43.152;172.732;2023-05-10T07:11:25;19.30;56.70
65826;DHT22;52586;-43.152;172.732;2023-05-10T07:13:56;19.30;56.70
65826;DHT22;52586;-43.152;172.732;2023-05-10T07:16:27;19.30;56.70
65826;DHT22;52586;-43.152;172.732;2023-05-10T07:18:57;19.20;56.60
65826;DHT22;52586;-43.152;172.732;2023-05-10T07:21:28;19.20;56.60
65826;DHT22;52586;-43.152;172.732;2023-05-10T07:24:01;19.20;56.60
65826;DHT22;52586;-43.152;172.732;2023-05-10T07:26:31;19.20;56.60
65826;DHT22;52586;-43.152;172.732;2023-05-10T07:29:02;19.20;56.60
65826;DHT22;52586;-43.152;172.732;2023-05-10T07:31:32;19.20;56.60
65826;DHT22;52586;-43.152;172.732;2023-05-10T07:34:03;19.20;56.60
65826;DHT22;52586;-43.152;172.732;2023-05-10T07:36:34;19.20;56.50
65826;DHT22;52586;-43.152;172.732;2023-05-10T07:39:06;19.10;56.50
65826;DHT22;52586;-43.152;172.732;2023-05-10T07:41:37;19.10;56.50
65826;DHT22;52586;-43.152;172.732;2023-05-10T07:44:08;19.10;56.50
65826;DHT22;52586;-43.152;172.732;2023-05-10T07:46:39;19.00;56.40
65826;DHT22;52586;-43.152;172.732;2023-05-10T07:49:09;19.00;56.40
65826;DHT22;52586;-43.152;172.732;2023-05-10T07:51:40;19.00;56.50
65826;DHT22;52586;-43.152;172.732;2023-05-10T07:54:13;19.00;56.40
65826;DHT22;52586;-43.152;172.732;2023-05-10T07:56:44;19.00;56.40
65826;DHT22;52586;-43.152;172.732;2023-05-10T07:59:17;18.90;56.40
65826;DHT22;52586;-43.152;172.732;2023-05-10T08:01:47;18.90;56.40
65826;DHT22;52586;-43.152;172.732;2023-05-10T08:04:18;18.90;56.40
65826;DHT22;52586;-43.152;172.732;2023-05-10T08:06:49;18.90;56.40
65826;DHT22;52586;-43.152;172.732;2023-05-10T08:09:21;18.90;56.60
65826;DHT22;52586;-43.152;172.732;2023-05-10T08:11:52;18.90;56.60
65826;DHT22;52586;-43.152;172.732;2023-05-10T08:14:22;18.90;56.50
65826;DHT22;52586;-43.152;172.732;2023-05-10T08:16:53;18.90;57.20
65826;DHT22;52586;-43.152;172.732;2023-05-10T08:19:24;18.90;56.60
65826;DHT22;52586;-43.152;172.732;2023-05-10T08:21:54;18.90;56.60
65826;DHT22;52586;-43.152;172.732;2023-05-10T08:24:27;18.90;56.60
65826;DHT22;52586;-43.152;172.732;2023-05-10T08:26:57;18.90;56.50
65826;DHT22;52586;-43.152;172.732;2023-05-10T08:29:28;18.90;56.50
65826;DHT22;52586;-43.152;172.732;2023-05-10T08:31:59;18.90;56.50
65826;DHT22;52586;-43.152;172.732;2023-05-10T08:34:29;18.90;56.50
65826;DHT22;52586;-43.152;172.732;2023-05-10T08:37:00;18.90;56.50
65826;DHT22;52586;-43.152;172.732;2023-05-10T08:39:35;18.90;56.50
65826;DHT22;52586;-43.152;172.732;2023-05-10T08:42:06;18.90;56.50
65826;DHT22;52586;-43.152;172.732;2023-05-10T08:44:37;18.90;56.40
65826;DHT22;52586;-43.152;172.732;2023-05-10T08:47:10;18.80;56.40
65826;DHT22;52586;-43.152;172.732;2023-05-10T08:49:41;18.80;56.40
65826;DHT22;52586;-43.152;172.732;2023-05-10T08:52:14;18.80;56.30
65826;DHT22;52586;-43.152;172.732;2023-05-10T08:54:47;18.80;56.20
65826;DHT22;52586;-43.152;172.732;2023-05-10T08:57:20;18.70;56.10
65826;DHT22;52586;-43.152;172.732;2023-05-10T08:59:50;18.70;56.10
65826;DHT22;52586;-43.152;172.732;2023-05-10T09:02:21;18.70;56.00
65826;DHT22;52586;-43.152;172.732;2023-05-10T09:04:53;18.60;56.00
65826;DHT22;52586;-43.152;172.732;2023-05-10T09:07:24;18.60;56.00
65826;DHT22;52586;-43.152;172.732;2023-05-10T09:09:57;18.60;56.00
65826;DHT22;52586;-43.152;172.732;2023-05-10T09:12:28;18.60;56.00
65826;DHT22;52586;-43.152;172.732;2023-05-10T09:15:01;18.50;55.90
65826;DHT22;52586;-43.152;172.732;2023-05-10T09:17:32;18.50;55.90
65826;DHT22;52586;-43.152;172.732;2023-05-10T09:20:04;18.50;55.90
65826;DHT22;52586;-43.152;172.732;2023-05-10T09:22:35;18.50;56.00
65826;DHT22;52586;-43.152;172.732;2023-05-10T09:25:17;18.50;56.00
65826;DHT22;52586;-43.152;172.732;2023-05-10T09:27:48;18.50;56.10
65826;DHT22;52586;-43.152;172.732;2023-05-10T09:30:24;18.50;56.10
65826;DHT22;52586;-43.152;172.732;2023-05-10T09:32:56;18.50;56.10
65826;DHT22;52586;-43.152;172.732;2023-05-10T09:35:28;18.50;56.10
65826;DHT22;52586;-43.152;172.732;2023-05-10T09:38:02;18.50;56.10
65826;DHT22;52586;-43.152;172.732;2023-05-10T09:40:35;18.40;56.00
65826;DHT22;52586;-43.152;172.732;2023-05-10T09:43:07;18.40;56.00
65826;DHT22;52586;-43.152;172.732;2023-05-10T09:45:38;18.40;56.00
65826;DHT22;52586;-43.152;172.732;2023-05-10T09:48:11;18.40;56.00
65826;DHT22;52586;-43.152;172.732;2023-05-10T09:50:42;18.40;56.00
65826;DHT22;52586;-43.152;172.732;2023-05-10T09:53:15;18.30;55.90
65826;DHT22;52586;-43.152;172.732;2023-05-10T09:55:48;18.30;56.00
65826;DHT22;52586;-43.152;172.732;2023-05-10T09:58:19;18.30;55.90
65826;DHT22;52586;-43.152;172.732;2023-05-10T10:00:49;18.30;55.90
65826;DHT22;52586;-43.152;172.732;2023-05-10T10:03:21;18.20;55.90
65826;DHT22;52586;-43.152;172.732;2023-05-10T10:05:52;18.20;55.90
65826;DHT22;52586;-43.152;172.732;2023-05-10T10:08:23;18.20;55.80
65826;DHT22;52586;-43.152;172.732;2023-05-10T10:10:56;18.20;55.90
65826;DHT22;52586;-43.152;172.732;2023-05-10T10:13:27;18.20;55.80
65826;DHT22;52586;-43.152;172.732;2023-05-10T10:15:57;18.20;55.80
65826;DHT22;52586;-43.152;172.732;2023-05-10T10:18:28;18.20;55.80
65826;DHT22;52586;-43.152;172.732;2023-05-10T10:21:01;18.10;55.70
65826;DHT22;52586;-43.152;172.732;2023-05-10T10:23:32;18.10;55.80
65826;DHT22;52586;-43.152;172.732;2023-05-10T10:26:05;18.10;55.70
65826;DHT22;52586;-43.152;172.732;2023-05-10T10:28:50;18.10;55.70
65826;DHT22;52586;-43.152;172.732;2023-05-10T10:31:34;18.10;55.70
65826;DHT22;52586;-43.152;172.732;2023-05-10T10:34:08;18.00;55.60
65826;DHT22;52586;-43.152;172.732;2023-05-10T10:36:45;18.00;55.60
65826;DHT22;52586;-43.152;172.732;2023-05-10T10:39:16;18.00;55.60
65826;DHT22;52586;-43.152;172.732;2023-05-10T10:41:53;17.90;55.60
65826;DHT22;52586;-43.152;172.732;2023-05-10T10:44:37;18.00;55.70
65826;DHT22;52586;-43.152;172.732;2023-05-10T10:47:24;17.90;55.70
65826;DHT22;52586;-43.152;172.732;2023-05-10T10:50:07;17.90;55.60
65826;DHT22;52586;-43.152;172.732;2023-05-10T10:52:40;17.90;55.60
65826;DHT22;52586;-43.152;172.732;2023-05-10T10:55:12;17.90;55.60
65826;DHT22;52586;-43.152;172.732;2023-05-10T10:57:47;17.80;55.50
65826;DHT22;52586;-43.152;172.732;2023-05-10T11:00:28;17.80;55.50
65826;DHT22;52586;-43.152;172.732;2023-05-10T11:03:03;17.80;55.50
65826;DHT22;52586;-43.152;172.732;2023-05-10T11:05:38;17.80;55.50
65826;DHT22;52586;-43.152;172.732;2023-05-10T11:08:12;17.80;55.50
65826;DHT22;52586;-43.152;172.732;2023-05-10T11:10:51;17.80;55.50
65826;DHT22;52586;-43.152;172.732;2023-05-10T11:13:34;17.80;55.50
65826;DHT22;52586;-43.152;172.732;2023-05-10T11:16:15;17.70;55.50
65826;DHT22;52586;-43.152;172.732;2023-05-10T11:18:59;17.70;55.50
65826;DHT22;52586;-43.152;172.732;2023-05-10T11:21:31;17.70;55.40
65826;DHT22;52586;-43.152;172.732;2023-05-10T11:24:08;17.70;55.50
65826;DHT22;52586;-43.152;172.732;2023-05-10T11:26:43;17.70;55.50
65826;DHT22;52586;-43.152;172.732;2023-05-10T11:29:16;17.70;55.50
65826;DHT22;52586;-43.152;172.732;2023-05-10T11:31:47;17.70;55.50
65826;DHT22;52586;-43.152;172.732;2023-05-10T11:34:25;17.70;55.50
65826;DHT22;52586;-43.152;172.732;2023-05-10T11:36:56;17.60;55.40
65826;DHT22;52586;-43.152;172.732;2023-05-10T11:39:31;17.60;55.40
65826;DHT22;52586;-43.152;172.732;2023-05-10T11:42:02;17.60;55.40
65826;DHT22;52586;-43.152;172.732;2023-05-10T11:44:34;17.60;55.50
65826;DHT22;52586;-43.152;172.732;2023-05-10T11:47:06;17.60;55.40
65826;DHT22;52586;-43.152;172.732;2023-05-10T11:49:36;17.60;55.40
65826;DHT22;52586;-43.152;172.732;2023-05-10T11:52:08;17.50;55.40
65826;DHT22;52586;-43.152;172.732;2023-05-10T11:54:44;17.60;55.40
65826;DHT22;52586;-43.152;172.732;2023-05-10T11:57:17;17.60;55.40
65826;DHT22;52586;-43.152;172.732;2023-05-10T11:59:54;17.50;55.40
65826;DHT22;52586;-43.152;172.732;2023-05-10T12:02:25;17.50;55.40
65826;DHT22;52586;-43.152;172.732;2023-05-10T12:04:56;17.50;55.40
65826;DHT22;52586;-43.152;172.732;2023-05-10T12:07:27;17.50;55.40
65826;DHT22;52586;-43.152;172.732;2023-05-10T12:10:06;17.50;55.40
65826;DHT22;52586;-43.152;172.732;2023-05-10T12:12:38;17.50;55.40
65826;DHT22;52586;-43.152;172.732;2023-05-10T12:15:19;17.50;55.40
65826;DHT22;52586;-43.152;172.732;2023-05-10T12:17:51;17.50;55.40
65826;DHT22;52586;-43.152;172.732;2023-05-10T12:20:26;17.40;55.40
65826;DHT22;52586;-43.152;172.732;2023-05-10T12:22:58;17.40;55.40
65826;DHT22;52586;-43.152;172.732;2023-05-10T12:25:32;17.40;55.40
65826;DHT22;52586;-43.152;172.732;2023-05-10T12:28:05;17.40;55.30
65826;DHT22;52586;-43.152;172.732;2023-05-10T12:30:38;17.40;55.30
65826;DHT22;52586;-43.152;172.732;2023-05-10T12:33:09;17.40;55.30
65826;DHT22;52586;-43.152;172.732;2023-05-10T12:35:47;17.40;55.30
65826;DHT22;52586;-43.152;172.732;2023-05-10T12:38:26;17.40;55.40
65826;DHT22;52586;-43.152;172.732;2023-05-10T12:40:59;17.40;55.40
65826;DHT22;52586;-43.152;172.732;2023-05-10T12:43:30;17.40;55.30
65826;DHT22;52586;-43.152;172.732;2023-05-10T12:46:05;17.30;55.30
65826;DHT22;52586;-43.152;172.732;2023-05-10T12:48:36;17.30;55.40
65826;DHT22;52586;-43.152;172.732;2023-05-10T12:51:07;17.30;55.30
65826;DHT22;52586;-43.152;172.732;2023-05-10T12:53:40;17.30;55.30
65826;DHT22;52586;-43.152;172.732;2023-05-10T12:56:13;17.30;55.40
65826;DHT22;52586;-43.152;172.732;2023-05-10T12:58:44;17.30;55.40
65826;DHT22;52586;-43.152;172.732;2023-05-10T13:01:17;17.30;55.40
65826;DHT22;52586;-43.152;172.732;2023-05-10T13:03:48;17.30;55.30
65826;DHT22;52586;-43.152;172.732;2023-05-10T13:06:18;17.30;55.30
65826;DHT22;52586;-43.152;172.732;2023-05-10T13:08:49;17.30;55.30
65826;DHT22;52586;-43.152;172.732;2023-05-10T13:11:20;17.20;55.30
65826;DHT22;52586;-43.152;172.732;2023-05-10T13:13:51;17.20;55.30
65826;DHT22;52586;-43.152;172.732;2023-05-10T13:16:23;17.20;55.30
65826;DHT22;52586;-43.152;172.732;2023-05-10T13:18:54;17.20;55.30
65826;DHT22;52586;-43.152;172.732;2023-05-10T13:21:25;17.20;55.30
65826;DHT22;52586;-43.152;172.732;2023-05-10T13:23:55;17.20;55.30
65826;DHT22;52586;-43.152;172.732;2023-05-10T13:26:26;17.20;55.30
65826;DHT22;52586;-43.152;172.732;2023-05-10T13:28:57;17.20;55.30
65826;DHT22;52586;-43.152;172.732;2023-05-10T13:31:29;17.10;55.20
65826;DHT22;52586;-43.152;172.732;2023-05-10T13:34:00;17.10;55.20
65826;DHT22;52586;-43.152;172.732;2023-05-10T13:36:30;17.10;55.20
65826;DHT22;52586;-43.152;172.732;2023-05-10T13:39:01;17.10;55.20
65826;DHT22;52586;-43.152;172.732;2023-05-10T13:41:32;17.10;55.20
65826;DHT22;52586;-43.152;172.732;2023-05-10T13:44:04;17.10;55.20
65826;DHT22;52586;-43.152;172.732;2023-05-10T13:46:37;17.10;55.20
65826;DHT22;52586;-43.152;172.732;2023-05-10T13:49:08;17.10;55.20
65826;DHT22;52586;-43.152;172.732;2023-05-10T13:51:39;17.10;55.20
65826;DHT22;52586;-43.152;172.732;2023-05-10T13:54:10;17.10;55.20
65826;DHT22;52586;-43.152;172.732;2023-05-10T13:56:41;17.10;55.20
65826;DHT22;52586;-43.152;172.732;2023-05-10T13:59:12;17.10;55.20
65826;DHT22;52586;-43.152;172.732;2023-05-10T14:01:45;17.10;55.20
65826;DHT22;52586;-43.152;172.732;2023-05-10T14:04:16;17.00;55.20
65826;DHT22;52586;-43.152;172.732;2023-05-10T14:06:46;17.00;55.20
65826;DHT22;52586;-43.152;172.732;2023-05-10T14:09:17;17.00;55.20
65826;DHT22;52586;-43.152;172.732;2023-05-10T14:11:48;17.00;55.20
65826;DHT22;52586;-43.152;172.732;2023-05-10T14:14:18;17.00;55.20
65826;DHT22;52586;-43.152;172.732;2023-05-10T14:16:51;17.00;55.20
65826;DHT22;52586;-43.152;172.732;2023-05-10T14:19:21;17.00;55.20
65826;DHT22;52586;-43.152;172.732;2023-05-10T14:21:52;17.00;55.20
65826;DHT22;52586;-43.152;172.732;2023-05-10T14:24:23;17.00;55.10
65826;DHT22;52586;-43.152;172.732;2023-05-10T14:26:53;17.00;55.10
65826;DHT22;52586;-43.152;172.732;2023-05-10T14:29:24;17.00;55.10
65826;DHT22;52586;-43.152;172.732;2023-05-10T14:31:57;17.00;55.10
65826;DHT22;52586;-43.152;172.732;2023-05-10T14:34:27;16.90;55.10
65826;DHT22;52586;-43.152;172.732;2023-05-10T14:36:58;17.00;55.10
65826;DHT22;52586;-43.152;172.732;2023-05-10T14:39:29;17.00;55.10
65826;DHT22;52586;-43.152;172.732;2023-05-10T14:41:59;16.90;55.10
65826;DHT22;52586;-43.152;172.732;2023-05-10T14:44:30;16.90;55.10
65826;DHT22;52586;-43.152;172.732;2023-05-10T14:47:02;16.90;55.10
65826;DHT22;52586;-43.152;172.732;2023-05-10T14:49:33;16.90;55.10
65826;DHT22;52586;-43.152;172.732;2023-05-10T14:52:04;16.90;55.10
65826;DHT22;52586;-43.152;172.732;2023-05-10T14:54:34;16.90;55.00
65826;DHT22;52586;-43.152;172.732;2023-05-10T14:57:05;16.90;55.10
65826;DHT22;52586;-43.152;172.732;2023-05-10T14:59:35;16.90;55.10
65826;DHT22;52586;-43.152;172.732;2023-05-10T15:02:08;16.90;55.10
65826;DHT22;52586;-43.152;172.732;2023-05-10T15:04:39;16.90;55.00
65826;DHT22;52586;-43.152;172.732;2023-05-10T15:07:10;16.80;55.00
65826;DHT22;52586;-43.152;172.732;2023-05-10T15:09:42;16.80;54.90
65826;DHT22;52586;-43.152;172.732;2023-05-10T15:12:13;16.80;55.00
65826;DHT22;52586;-43.152;172.732;2023-05-10T15:14:43;16.80;55.00
65826;DHT22;52586;-43.152;172.732;2023-05-10T15:17:16;16.80;55.00
65826;DHT22;52586;-43.152;172.732;2023-05-10T15:19:46;16.80;55.00
65826;DHT22;52586;-43.152;172.732;2023-05-10T15:22:17;16.80;55.00